Arlington, CA

8:04 PM PST on February 13, 2016 (GMT -0800)
Moon Valley Nurseries Riverside | | Change Station
CLOSE
Current Station
Personal Weather Station
Location: Riverside, CA
Elevation: 860 ft
Nearby Weather Stations

Elev 860 ft 33.91 °N, 117.44 °W | Updated 15 seconds ago

Clear
Clear
61.2 °F
Feels Like 61.2 °F
N
0.0
Wind Variable Wind from SE
Gusts 4.0 mph

Today
High -- | Low -- °F
--% Chance of Precip.
Yesterday
High -- | Low -- °F
Precip. -- in
Pressure 30.03 in
Visibility 10.0 miles
Clouds Clear
Dew Point 36 °F
Humidity 39%
Rainfall in
Snow Depth Not available.
6:36 AM 5:31 PM
Waxing Crescent, 37% visible
METAR KRAL 140353Z 15004KT 10SM CLR 18/04 A3006 RMK AO2 SLP168 T01830039
Pressure 30.03 in
Visibility 10.0 miles
Clouds Clear
Dew Point 36 °F
Humidity 39%
Rainfall in
Snow Depth Not available.
6:36 AM 5:31 PM
Waxing Crescent, 37% visible
METAR KRAL 140353Z 15004KT 10SM CLR 18/04 A3006 RMK AO2 SLP168 T01830039

10-Day Weather Forecast

Almanac

Astronomy

Feb. 13, 2016 Rise Set
Actual Time
Civil Twilight
Nautical Twilight
Astronomical Twilight
Moon
Length of Visible Light
Length of Day
Tomorrow will be .
, % of the Moon is Illuminated

Today's Extremes

State Highs State Lows

Community

WunderPhotos

Upload Photos

1,892,743 photos uploaded!

WunderBlog® & News

Nearby

Air Quality

  Air Quality AQ Index Pollutant
Not available.

Snow Depth

Station Depth Elevation

Earthquake Activity

City Distance Mag. Time & Date
Minimum magnitude displayed is 2.5.

Coastal Water Temperatures

Place Temperature

Stations

Nearby Weather Stations

Station Location Temp. Windchill Dew Point Humidity Wind Precip. Elev Updated Type
                   

Watches & Warnings

There are currently no watches in effect.